sensor_id;sensor_type;location;lat;lon;timestamp;pressure;altitude;pressure_sealevel;temperature;humidity
69223;BME280;56514;51.816;-0.026;2023-03-31T00:02:17;98935.97;;;12.55;74.49
69223;BME280;56514;51.816;-0.026;2023-03-31T00:05:29;98922.06;;;12.53;74.67
69223;BME280;56514;51.816;-0.026;2023-03-31T00:08:41;98916.78;;;12.53;74.90
69223;BME280;56514;51.816;-0.026;2023-03-31T00:11:51;98903.88;;;12.50;74.76
69223;BME280;56514;51.816;-0.026;2023-03-31T00:15:01;98892.34;;;12.51;75.02
69223;BME280;56514;51.816;-0.026;2023-03-31T00:18:10;98884.88;;;12.54;74.89
69223;BME280;56514;51.816;-0.026;2023-03-31T00:21:22;98864.72;;;12.53;75.61
69223;BME280;56514;51.816;-0.026;2023-03-31T00:24:42;98850.34;;;12.56;75.34
69223;BME280;56514;51.816;-0.026;2023-03-31T00:27:27;98846.88;;;12.55;75.01
69223;BME280;56514;51.816;-0.026;2023-03-31T00:30:13;98831.50;;;12.59;75.55
69223;BME280;56514;51.816;-0.026;2023-03-31T00:32:57;98827.03;;;12.59;75.20
69223;BME280;56514;51.816;-0.026;2023-03-31T00:35:43;98817.78;;;12.63;75.30
69223;BME280;56514;51.816;-0.026;2023-03-31T00:38:29;98805.06;;;12.67;75.11
69223;BME280;56514;51.816;-0.026;2023-03-31T00:41:14;98799.63;;;12.68;75.13
69223;BME280;56514;51.816;-0.026;2023-03-31T00:44:13;98790.38;;;12.72;74.80
69223;BME280;56514;51.816;-0.026;2023-03-31T00:47:17;98783.91;;;12.75;74.94
69223;BME280;56514;51.816;-0.026;2023-03-31T00:50:14;98779.31;;;12.77;74.25
69223;BME280;56514;51.816;-0.026;2023-03-31T00:53:10;98774.00;;;12.77;74.25
69223;BME280;56514;51.816;-0.026;2023-03-31T00:56:02;98774.81;;;12.77;74.29
69223;BME280;56514;51.816;-0.026;2023-03-31T00:58:51;98760.78;;;12.77;73.56
69223;BME280;56514;51.816;-0.026;2023-03-31T01:01:39;98752.50;;;12.72;74.08
69223;BME280;56514;51.816;-0.026;2023-03-31T01:04:26;98736.31;;;12.67;73.97
69223;BME280;56514;51.816;-0.026;2023-03-31T01:07:25;98727.72;;;12.65;74.17
69223;BME280;56514;51.816;-0.026;2023-03-31T01:10:15;98713.16;;;12.61;74.31
69223;BME280;56514;51.816;-0.026;2023-03-31T01:12:59;98710.69;;;12.59;74.02
69223;BME280;56514;51.816;-0.026;2023-03-31T01:15:44;98693.34;;;12.57;74.33
69223;BME280;56514;51.816;-0.026;2023-03-31T01:18:30;98683.72;;;12.56;74.25
69223;BME280;56514;51.816;-0.026;2023-03-31T01:37:15;98617.31;;;12.34;74.85
69223;BME280;56514;51.816;-0.026;2023-03-31T01:43:25;98591.53;;;12.28;75.35
69223;BME280;56514;51.816;-0.026;2023-03-31T01:46:27;98578.31;;;12.28;75.27
69223;BME280;56514;51.816;-0.026;2023-03-31T01:58:22;98550.56;;;12.32;75.66
69223;BME280;56514;51.816;-0.026;2023-03-31T02:01:22;98541.66;;;12.33;75.47
69223;BME280;56514;51.816;-0.026;2023-03-31T02:04:34;98533.03;;;12.39;75.75
69223;BME280;56514;51.816;-0.026;2023-03-31T02:07:27;98521.47;;;12.40;75.83
69223;BME280;56514;51.816;-0.026;2023-03-31T02:10:17;98507.25;;;12.42;75.98
69223;BME280;56514;51.816;-0.026;2023-03-31T02:13:05;98489.56;;;12.42;75.58
69223;BME280;56514;51.816;-0.026;2023-03-31T02:15:55;98491.88;;;12.45;75.46
69223;BME280;56514;51.816;-0.026;2023-03-31T02:18:43;98475.03;;;12.46;75.87
69223;BME280;56514;51.816;-0.026;2023-03-31T02:21:32;98462.97;;;12.43;75.97
69223;BME280;56514;51.816;-0.026;2023-03-31T02:24:22;98446.47;;;12.42;76.19
69223;BME280;56514;51.816;-0.026;2023-03-31T02:27:26;98448.09;;;12.43;76.15
69223;BME280;56514;51.816;-0.026;2023-03-31T02:30:13;98436.50;;;12.43;76.35
69223;BME280;56514;51.816;-0.026;2023-03-31T02:32:58;98428.41;;;12.45;76.49
69223;BME280;56514;51.816;-0.026;2023-03-31T02:35:43;98425.59;;;12.47;76.58
69223;BME280;56514;51.816;-0.026;2023-03-31T02:38:32;98411.41;;;12.48;76.79
69223;BME280;56514;51.816;-0.026;2023-03-31T02:41:19;98404.09;;;12.50;76.52
69223;BME280;56514;51.816;-0.026;2023-03-31T02:44:05;98394.19;;;12.52;76.52
69223;BME280;56514;51.816;-0.026;2023-03-31T02:46:50;98384.09;;;12.55;76.59
69223;BME280;56514;51.816;-0.026;2023-03-31T02:49:38;98381.28;;;12.57;76.64
69223;BME280;56514;51.816;-0.026;2023-03-31T02:52:47;98362.75;;;12.57;76.54
69223;BME280;56514;51.816;-0.026;2023-03-31T03:05:00;98338.44;;;12.61;76.84
69223;BME280;56514;51.816;-0.026;2023-03-31T03:08:23;98327.88;;;12.61;76.71
69223;BME280;56514;51.816;-0.026;2023-03-31T03:11:19;98316.28;;;12.62;76.67
69223;BME280;56514;51.816;-0.026;2023-03-31T03:17:11;98306.34;;;12.64;76.69
69223;BME280;56514;51.816;-0.026;2023-03-31T03:20:00;98289.31;;;12.67;76.32
69223;BME280;56514;51.816;-0.026;2023-03-31T03:22:45;98278.53;;;12.68;76.37
69223;BME280;56514;51.816;-0.026;2023-03-31T03:25:31;98271.75;;;12.74;76.37
69223;BME280;56514;51.816;-0.026;2023-03-31T03:28:18;98271.75;;;12.74;76.21
69223;BME280;56514;51.816;-0.026;2023-03-31T03:31:03;98250.94;;;12.71;76.46
69223;BME280;56514;51.816;-0.026;2023-03-31T03:33:49;98239.72;;;12.69;76.41
69223;BME280;56514;51.816;-0.026;2023-03-31T03:36:37;98235.44;;;12.68;76.54
69223;BME280;56514;51.816;-0.026;2023-03-31T03:39:23;98220.91;;;12.64;76.44
69223;BME280;56514;51.816;-0.026;2023-03-31T03:42:08;98222.72;;;12.63;76.72
69223;BME280;56514;51.816;-0.026;2023-03-31T03:44:52;98209.47;;;12.63;76.61
69223;BME280;56514;51.816;-0.026;2023-03-31T03:47:37;98208.50;;;12.64;76.62
69223;BME280;56514;51.816;-0.026;2023-03-31T03:50:22;98199.09;;;12.62;76.26
69223;BME280;56514;51.816;-0.026;2023-03-31T03:53:07;98195.63;;;12.61;76.57
69223;BME280;56514;51.816;-0.026;2023-03-31T03:55:52;98180.56;;;12.62;76.32
69223;BME280;56514;51.816;-0.026;2023-03-31T03:58:37;98171.84;;;12.61;76.24
69223;BME280;56514;51.816;-0.026;2023-03-31T04:01:22;98168.19;;;12.62;76.23
69223;BME280;56514;51.816;-0.026;2023-03-31T04:04:07;98163.91;;;12.61;76.25
69223;BME280;56514;51.816;-0.026;2023-03-31T04:06:52;98157.78;;;12.61;76.10
69223;BME280;56514;51.816;-0.026;2023-03-31T04:09:36;98144.38;;;12.62;75.83
69223;BME280;56514;51.816;-0.026;2023-03-31T04:12:21;98144.38;;;12.62;75.50
69223;BME280;56514;51.816;-0.026;2023-03-31T04:15:06;98138.53;;;12.52;75.91
69223;BME280;56514;51.816;-0.026;2023-03-31T04:17:51;98134.81;;;12.61;75.56
69223;BME280;56514;51.816;-0.026;2023-03-31T04:20:37;98125.84;;;12.48;76.11
69223;BME280;56514;51.816;-0.026;2023-03-31T04:23:22;98129.03;;;12.43;76.28
69223;BME280;56514;51.816;-0.026;2023-03-31T04:26:12;98114.16;;;12.42;76.12
69223;BME280;56514;51.816;-0.026;2023-03-31T04:28:57;98109.03;;;12.40;76.35
69223;BME280;56514;51.816;-0.026;2023-03-31T04:31:45;98105.78;;;12.38;76.06
69223;BME280;56514;51.816;-0.026;2023-03-31T04:34:30;98096.19;;;12.37;75.99
69223;BME280;56514;51.816;-0.026;2023-03-31T04:37:21;98090.53;;;12.40;75.88
69223;BME280;56514;51.816;-0.026;2023-03-31T04:40:07;98086.44;;;12.38;75.88
69223;BME280;56514;51.816;-0.026;2023-03-31T04:42:53;98085.44;;;12.39;75.93
69223;BME280;56514;51.816;-0.026;2023-03-31T04:45:37;98081.63;;;12.42;75.98
69223;BME280;56514;51.816;-0.026;2023-03-31T04:48:22;98076.97;;;12.43;75.64
69223;BME280;56514;51.816;-0.026;2023-03-31T04:51:07;98061.09;;;12.43;75.71
69223;BME280;56514;51.816;-0.026;2023-03-31T04:53:53;98066.84;;;12.47;75.33
69223;BME280;56514;51.816;-0.026;2023-03-31T04:56:38;98055.28;;;12.48;74.97
69223;BME280;56514;51.816;-0.026;2023-03-31T04:59:23;98053.81;;;12.46;75.07
69223;BME280;56514;51.816;-0.026;2023-03-31T05:02:08;98044.25;;;12.45;74.89
69223;BME280;56514;51.816;-0.026;2023-03-31T05:04:53;98028.56;;;12.43;75.03
69223;BME280;56514;51.816;-0.026;2023-03-31T05:07:38;98033.03;;;12.43;74.90
69223;BME280;56514;51.816;-0.026;2023-03-31T05:10:23;98022.47;;;12.43;74.75
69223;BME280;56514;51.816;-0.026;2023-03-31T05:13:09;98022.47;;;12.43;75.13
69223;BME280;56514;51.816;-0.026;2023-03-31T05:15:55;98014.34;;;12.44;75.14
69223;BME280;56514;51.816;-0.026;2023-03-31T05:18:40;98015.00;;;12.46;74.39
69223;BME280;56514;51.816;-0.026;2023-03-31T05:21:25;98000.94;;;12.46;74.50
69223;BME280;56514;51.816;-0.026;2023-03-31T05:24:12;97995.66;;;12.46;74.36
69223;BME280;56514;51.816;-0.026;2023-03-31T05:26:57;98000.75;;;12.47;74.19
69223;BME280;56514;51.816;-0.026;2023-03-31T05:29:42;97997.75;;;12.50;74.01
69223;BME280;56514;51.816;-0.026;2023-03-31T05:32:27;97994.03;;;12.45;74.24
69223;BME280;56514;51.816;-0.026;2023-03-31T05:35:12;97992.00;;;12.47;74.26
69223;BME280;56514;51.816;-0.026;2023-03-31T05:37:57;97986.47;;;12.42;74.24
69223;BME280;56514;51.816;-0.026;2023-03-31T05:40:42;97985.44;;;12.43;74.49
69223;BME280;56514;51.816;-0.026;2023-03-31T05:43:27;97976.50;;;12.43;74.29
69223;BME280;56514;51.816;-0.026;2023-03-31T05:46:11;97985.09;;;12.46;74.26
69223;BME280;56514;51.816;-0.026;2023-03-31T05:48:57;97976.31;;;12.45;74.30
69223;BME280;56514;51.816;-0.026;2023-03-31T05:51:42;97966.22;;;12.49;74.11
69223;BME280;56514;51.816;-0.026;2023-03-31T05:54:26;97958.47;;;12.47;74.31
69223;BME280;56514;51.816;-0.026;2023-03-31T05:57:11;97955.00;;;12.47;74.31
69223;BME280;56514;51.816;-0.026;2023-03-31T05:59:57;97953.00;;;12.49;74.17
69223;BME280;56514;51.816;-0.026;2023-03-31T06:02:41;97946.06;;;12.48;74.37
69223;BME280;56514;51.816;-0.026;2023-03-31T06:05:26;97941.78;;;12.47;74.41
69223;BME280;56514;51.816;-0.026;2023-03-31T06:08:11;97938.94;;;12.48;74.35
69223;BME280;56514;51.816;-0.026;2023-03-31T06:10:56;97933.59;;;12.42;74.65
69223;BME280;56514;51.816;-0.026;2023-03-31T06:13:42;97932.13;;;12.39;74.75
69223;BME280;56514;51.816;-0.026;2023-03-31T06:16:26;97925.00;;;12.39;74.79
69223;BME280;56514;51.816;-0.026;2023-03-31T06:19:12;97915.28;;;12.40;74.83
69223;BME280;56514;51.816;-0.026;2023-03-31T06:21:57;97917.38;;;12.45;74.49
69223;BME280;56514;51.816;-0.026;2023-03-31T06:24:42;97915.88;;;12.42;74.65
69223;BME280;56514;51.816;-0.026;2023-03-31T06:27:27;97914.06;;;12.43;75.19
69223;BME280;56514;51.816;-0.026;2023-03-31T06:30:12;97920.00;;;12.45;74.88
69223;BME280;56514;51.816;-0.026;2023-03-31T06:32:57;97914.72;;;12.45;75.02
69223;BME280;56514;51.816;-0.026;2023-03-31T06:35:42;97911.91;;;12.46;74.85
69223;BME280;56514;51.816;-0.026;2023-03-31T06:38:27;97896.03;;;12.46;74.85
69223;BME280;56514;51.816;-0.026;2023-03-31T06:41:14;97911.06;;;12.46;75.24
69223;BME280;56514;51.816;-0.026;2023-03-31T06:43:59;97904.69;;;12.40;75.34
69223;BME280;56514;51.816;-0.026;2023-03-31T06:46:44;97907.34;;;12.40;75.51
69223;BME280;56514;51.816;-0.026;2023-03-31T06:49:29;97902.47;;;12.43;75.46
69223;BME280;56514;51.816;-0.026;2023-03-31T06:52:14;97890.94;;;12.45;75.33
69223;BME280;56514;51.816;-0.026;2023-03-31T06:54:59;97894.38;;;12.45;75.97
69223;BME280;56514;51.816;-0.026;2023-03-31T06:57:44;97901.31;;;12.46;75.59
69223;BME280;56514;51.816;-0.026;2023-03-31T07:00:29;97897.00;;;12.45;75.87
69223;BME280;56514;51.816;-0.026;2023-03-31T07:03:15;97897.66;;;12.47;75.96
69223;BME280;56514;51.816;-0.026;2023-03-31T07:06:06;97899.75;;;12.52;75.94
69223;BME280;56514;51.816;-0.026;2023-03-31T07:08:51;97890.19;;;12.51;75.89
69223;BME280;56514;51.816;-0.026;2023-03-31T07:11:36;97888.53;;;12.50;76.08
69223;BME280;56514;51.816;-0.026;2023-03-31T07:14:21;97885.50;;;12.53;76.15
69223;BME280;56514;51.816;-0.026;2023-03-31T07:17:06;97888.25;;;12.59;76.16
69223;BME280;56514;51.816;-0.026;2023-03-31T07:19:51;97884.38;;;12.76;76.10
69223;BME280;56514;51.816;-0.026;2023-03-31T07:22:35;97883.56;;;12.76;76.06
69223;BME280;56514;51.816;-0.026;2023-03-31T07:25:22;97873.50;;;12.86;75.64
69223;BME280;56514;51.816;-0.026;2023-03-31T07:28:07;97877.59;;;12.88;75.80
69223;BME280;56514;51.816;-0.026;2023-03-31T07:30:52;97880.75;;;12.98;75.26
69223;BME280;56514;51.816;-0.026;2023-03-31T07:33:39;97876.19;;;13.07;75.28
69223;BME280;56514;51.816;-0.026;2023-03-31T07:36:24;97880.63;;;13.21;74.84
69223;BME280;56514;51.816;-0.026;2023-03-31T07:39:10;97872.53;;;13.29;74.89
69223;BME280;56514;51.816;-0.026;2023-03-31T07:41:54;97874.41;;;13.35;74.74
69223;BME280;56514;51.816;-0.026;2023-03-31T07:44:40;97876.94;;;13.43;74.40
69223;BME280;56514;51.816;-0.026;2023-03-31T07:47:25;97876.03;;;13.57;73.03
69223;BME280;56514;51.816;-0.026;2023-03-31T07:50:12;97876.41;;;13.54;74.05
69223;BME280;56514;51.816;-0.026;2023-03-31T07:52:57;97880.19;;;13.66;73.94
69223;BME280;56514;51.816;-0.026;2023-03-31T07:55:42;97875.22;;;13.84;73.31
69223;BME280;56514;51.816;-0.026;2023-03-31T07:58:27;97873.66;;;13.96;72.91
69223;BME280;56514;51.816;-0.026;2023-03-31T08:01:15;97878.88;;;14.17;72.49
69223;BME280;56514;51.816;-0.026;2023-03-31T08:04:02;97868.44;;;14.43;71.59
69223;BME280;56514;51.816;-0.026;2023-03-31T08:06:47;97869.88;;;14.39;70.74
69223;BME280;56514;51.816;-0.026;2023-03-31T08:09:32;97880.22;;;14.28;70.70
69223;BME280;56514;51.816;-0.026;2023-03-31T08:12:18;97860.97;;;14.19;71.45
69223;BME280;56514;51.816;-0.026;2023-03-31T08:15:03;97867.28;;;14.18;70.88
69223;BME280;56514;51.816;-0.026;2023-03-31T08:17:49;97859.25;;;14.05;71.12
69223;BME280;56514;51.816;-0.026;2023-03-31T08:20:35;97865.81;;;14.09;71.28
69223;BME280;56514;51.816;-0.026;2023-03-31T08:23:20;97856.97;;;14.02;71.85
69223;BME280;56514;51.816;-0.026;2023-03-31T08:26:13;97858.94;;;14.21;71.39
69223;BME280;56514;51.816;-0.026;2023-03-31T08:29:01;97854.91;;;14.25;71.11
69223;BME280;56514;51.816;-0.026;2023-03-31T08:31:48;97848.72;;;14.18;71.44
69223;BME280;56514;51.816;-0.026;2023-03-31T08:34:33;97846.63;;;14.07;71.51
69223;BME280;56514;51.816;-0.026;2023-03-31T08:37:21;97849.81;;;13.96;72.45
69223;BME280;56514;51.816;-0.026;2023-03-31T08:40:06;97844.69;;;13.88;72.20
69223;BME280;56514;51.816;-0.026;2023-03-31T08:42:59;97836.25;;;13.78;72.57
69223;BME280;56514;51.816;-0.026;2023-03-31T08:45:46;97840.50;;;13.72;72.84
69223;BME280;56514;51.816;-0.026;2023-03-31T08:48:53;97843.34;;;13.71;72.77
69223;BME280;56514;51.816;-0.026;2023-03-31T08:51:41;97838.66;;;13.73;73.09
69223;BME280;56514;51.816;-0.026;2023-03-31T08:54:38;97834.50;;;13.91;72.84
69223;BME280;56514;51.816;-0.026;2023-03-31T09:00:40;97830.97;;;14.12;71.99
69223;BME280;56514;51.816;-0.026;2023-03-31T09:03:39;97835.63;;;14.10;72.57
69223;BME280;56514;51.816;-0.026;2023-03-31T09:16:05;97825.66;;;14.18;71.69
69223;BME280;56514;51.816;-0.026;2023-03-31T09:18:59;97821.31;;;14.32;71.42
69223;BME280;56514;51.816;-0.026;2023-03-31T09:21:48;97814.59;;;14.43;71.33
69223;BME280;56514;51.816;-0.026;2023-03-31T09:27:58;97814.63;;;14.56;70.43
69223;BME280;56514;51.816;-0.026;2023-03-31T09:30:47;97807.31;;;14.58;70.61
69223;BME280;56514;51.816;-0.026;2023-03-31T09:33:40;97804.06;;;14.75;70.51
69223;BME280;56514;51.816;-0.026;2023-03-31T09:36:26;97816.34;;;14.83;69.68
69223;BME280;56514;51.816;-0.026;2023-03-31T09:39:13;97810.38;;;14.68;69.11
69223;BME280;56514;51.816;-0.026;2023-03-31T09:41:58;97810.97;;;14.50;70.24
69223;BME280;56514;51.816;-0.026;2023-03-31T09:44:46;97799.50;;;14.43;70.38
69223;BME280;56514;51.816;-0.026;2023-03-31T09:47:34;97798.28;;;14.46;71.00
69223;BME280;56514;51.816;-0.026;2023-03-31T09:50:23;97793.44;;;14.62;70.64
69223;BME280;56514;51.816;-0.026;2023-03-31T09:53:29;97801.81;;;14.66;70.30
69223;BME280;56514;51.816;-0.026;2023-03-31T09:59:33;97801.16;;;14.51;70.38
69223;BME280;56514;51.816;-0.026;2023-03-31T10:02:55;97802.34;;;14.35;70.38
69223;BME280;56514;51.816;-0.026;2023-03-31T10:05:50;97800.72;;;14.00;71.71
69223;BME280;56514;51.816;-0.026;2023-03-31T10:08:47;97786.59;;;13.93;72.21
69223;BME280;56514;51.816;-0.026;2023-03-31T10:11:33;97785.72;;;13.79;72.20
69223;BME280;56514;51.816;-0.026;2023-03-31T10:14:25;97790.31;;;13.64;73.30
69223;BME280;56514;51.816;-0.026;2023-03-31T10:17:14;97790.50;;;13.63;73.51
69223;BME280;56514;51.816;-0.026;2023-03-31T10:20:18;97784.75;;;13.53;74.04
69223;BME280;56514;51.816;-0.026;2023-03-31T10:23:26;97786.25;;;13.62;74.10
69223;BME280;56514;51.816;-0.026;2023-03-31T10:26:17;97775.66;;;13.68;74.48
69223;BME280;56514;51.816;-0.026;2023-03-31T10:29:10;97783.13;;;13.86;74.17
69223;BME280;56514;51.816;-0.026;2023-03-31T10:32:29;97778.25;;;13.89;74.22
69223;BME280;56514;51.816;-0.026;2023-03-31T10:38:23;97765.53;;;14.19;74.30
69223;BME280;56514;51.816;-0.026;2023-03-31T10:41:09;97769.72;;;14.48;74.96
69223;BME280;56514;51.816;-0.026;2023-03-31T10:43:56;97777.56;;;14.69;73.44
69223;BME280;56514;51.816;-0.026;2023-03-31T10:46:49;97768.53;;;14.63;73.38
69223;BME280;56514;51.816;-0.026;2023-03-31T10:49:38;97773.03;;;14.56;71.30
69223;BME280;56514;51.816;-0.026;2023-03-31T10:52:25;97773.00;;;14.02;72.61
69223;BME280;56514;51.816;-0.026;2023-03-31T10:55:22;97780.78;;;13.70;73.95
69223;BME280;56514;51.816;-0.026;2023-03-31T10:58:26;97787.97;;;13.21;76.52
69223;BME280;56514;51.816;-0.026;2023-03-31T11:01:42;97780.63;;;13.16;77.75
69223;BME280;56514;51.816;-0.026;2023-03-31T11:04:53;97787.53;;;13.17;77.83
69223;BME280;56514;51.816;-0.026;2023-03-31T11:19:57;97794.72;;;14.79;74.91
69223;BME280;56514;51.816;-0.026;2023-03-31T11:31:48;97817.16;;;16.01;71.42
69223;BME280;56514;51.816;-0.026;2023-03-31T11:34:43;97824.31;;;16.07;70.12
69223;BME280;56514;51.816;-0.026;2023-03-31T11:37:46;97826.53;;;16.10;70.63
69223;BME280;56514;51.816;-0.026;2023-03-31T11:43:49;97823.53;;;16.57;70.38
69223;BME280;56514;51.816;-0.026;2023-03-31T11:46:54;97827.31;;;16.30;71.24
69223;BME280;56514;51.816;-0.026;2023-03-31T11:49:46;97846.63;;;16.06;71.75
69223;BME280;56514;51.816;-0.026;2023-03-31T11:52:39;97840.34;;;15.67;72.07
69223;BME280;56514;51.816;-0.026;2023-03-31T11:55:28;97852.72;;;15.15;74.27
69223;BME280;56514;51.816;-0.026;2023-03-31T12:01:06;97862.34;;;14.49;78.88
69223;BME280;56514;51.816;-0.026;2023-03-31T12:04:01;97859.38;;;14.65;78.65
69223;BME280;56514;51.816;-0.026;2023-03-31T12:06:51;97873.84;;;14.69;78.58
69223;BME280;56514;51.816;-0.026;2023-03-31T12:16:15;97896.59;;;14.91;78.58
69223;BME280;56514;51.816;-0.026;2023-03-31T12:19:13;97893.66;;;15.40;75.90
69223;BME280;56514;51.816;-0.026;2023-03-31T12:22:33;97901.03;;;15.51;77.21
69223;BME280;56514;51.816;-0.026;2023-03-31T12:25:21;97911.25;;;15.47;74.29
69223;BME280;56514;51.816;-0.026;2023-03-31T12:28:13;97928.41;;;14.85;75.01
69223;BME280;56514;51.816;-0.026;2023-03-31T12:31:00;97922.84;;;14.33;76.85
69223;BME280;56514;51.816;-0.026;2023-03-31T12:33:56;97923.16;;;13.89;78.50
69223;BME280;56514;51.816;-0.026;2023-03-31T12:43:53;97958.50;;;12.97;79.48
69223;BME280;56514;51.816;-0.026;2023-03-31T12:50:22;97969.38;;;12.59;81.58
69223;BME280;56514;51.816;-0.026;2023-03-31T12:56:02;97989.47;;;12.68;82.44
69223;BME280;56514;51.816;-0.026;2023-03-31T12:58:47;97993.09;;;12.67;81.46
69223;BME280;56514;51.816;-0.026;2023-03-31T13:01:32;98000.66;;;12.40;82.37
69223;BME280;56514;51.816;-0.026;2023-03-31T13:04:42;98000.84;;;12.39;82.73
69223;BME280;56514;51.816;-0.026;2023-03-31T13:10:32;98001.75;;;12.31;83.79
69223;BME280;56514;51.816;-0.026;2023-03-31T13:13:20;98006.97;;;12.39;84.71
69223;BME280;56514;51.816;-0.026;2023-03-31T13:16:06;98002.50;;;12.55;84.11
69223;BME280;56514;51.816;-0.026;2023-03-31T13:18:52;98008.59;;;12.84;82.33
69223;BME280;56514;51.816;-0.026;2023-03-31T13:21:55;98017.28;;;12.78;82.47
69223;BME280;56514;51.816;-0.026;2023-03-31T13:24:41;98032.59;;;12.68;83.51
69223;BME280;56514;51.816;-0.026;2023-03-31T13:27:32;98028.03;;;12.77;83.48
69223;BME280;56514;51.816;-0.026;2023-03-31T13:42:49;98039.53;;;15.01;77.03
69223;BME280;56514;51.816;-0.026;2023-03-31T13:46:06;98045.25;;;14.98;78.27
69223;BME280;56514;51.816;-0.026;2023-03-31T13:49:40;98049.41;;;15.13;78.37
69223;BME280;56514;51.816;-0.026;2023-03-31T13:52:38;98052.06;;;15.13;77.03
69223;BME280;56514;51.816;-0.026;2023-03-31T14:08:52;98085.31;;;14.41;77.88
69223;BME280;56514;51.816;-0.026;2023-03-31T14:11:38;98094.78;;;14.29;79.23
69223;BME280;56514;51.816;-0.026;2023-03-31T14:14:23;98082.81;;;14.18;79.29
69223;BME280;56514;51.816;-0.026;2023-03-31T14:17:10;98098.34;;;14.22;78.61
69223;BME280;56514;51.816;-0.026;2023-03-31T14:23:28;98109.78;;;13.65;80.30
69223;BME280;56514;51.816;-0.026;2023-03-31T14:26:40;98115.22;;;13.57;81.26
69223;BME280;56514;51.816;-0.026;2023-03-31T14:29:58;98127.44;;;13.58;81.12
69223;BME280;56514;51.816;-0.026;2023-03-31T14:36:01;98136.66;;;13.62;81.29
69223;BME280;56514;51.816;-0.026;2023-03-31T14:38:48;98140.88;;;13.57;80.89
69223;BME280;56514;51.816;-0.026;2023-03-31T14:41:33;98144.34;;;13.43;82.25
69223;BME280;56514;51.816;-0.026;2023-03-31T14:44:21;98141.06;;;13.55;82.15
69223;BME280;56514;51.816;-0.026;2023-03-31T14:47:12;98157.53;;;13.86;81.28
69223;BME280;56514;51.816;-0.026;2023-03-31T14:50:12;98152.44;;;14.06;81.44
69223;BME280;56514;51.816;-0.026;2023-03-31T14:52:58;98164.53;;;14.30;80.59
69223;BME280;56514;51.816;-0.026;2023-03-31T14:55:45;98156.81;;;14.56;79.45
69223;BME280;56514;51.816;-0.026;2023-03-31T14:58:45;98167.84;;;14.80;77.53
69223;BME280;56514;51.816;-0.026;2023-03-31T15:01:33;98167.59;;;15.03;77.14
69223;BME280;56514;51.816;-0.026;2023-03-31T15:04:23;98169.28;;;15.10;77.16
69223;BME280;56514;51.816;-0.026;2023-03-31T15:07:12;98174.06;;;15.21;77.40
69223;BME280;56514;51.816;-0.026;2023-03-31T15:10:01;98194.19;;;15.09;76.61
69223;BME280;56514;51.816;-0.026;2023-03-31T15:12:48;98177.94;;;15.19;74.81
69223;BME280;56514;51.816;-0.026;2023-03-31T15:22:16;98201.66;;;14.51;76.45
69223;BME280;56514;51.816;-0.026;2023-03-31T15:25:04;98203.31;;;14.31;77.75
69223;BME280;56514;51.816;-0.026;2023-03-31T15:28:04;98214.00;;;14.23;77.80
69223;BME280;56514;51.816;-0.026;2023-03-31T15:30:51;98202.81;;;14.06;79.71
69223;BME280;56514;51.816;-0.026;2023-03-31T15:33:36;98221.69;;;14.18;79.11
69223;BME280;56514;51.816;-0.026;2023-03-31T15:36:27;98217.66;;;14.36;77.34
69223;BME280;56514;51.816;-0.026;2023-03-31T15:39:14;98234.69;;;14.27;78.54
69223;BME280;56514;51.816;-0.026;2023-03-31T15:42:02;98230.78;;;14.44;77.97
69223;BME280;56514;51.816;-0.026;2023-03-31T15:44:54;98228.53;;;14.62;77.06
69223;BME280;56514;51.816;-0.026;2023-03-31T15:47:50;98241.00;;;14.89;77.02
69223;BME280;56514;51.816;-0.026;2023-03-31T15:50:37;98236.50;;;15.11;76.51
69223;BME280;56514;51.816;-0.026;2023-03-31T15:53:35;98241.34;;;15.35;75.31
69223;BME280;56514;51.816;-0.026;2023-03-31T15:56:44;98247.25;;;15.30;74.27
69223;BME280;56514;51.816;-0.026;2023-03-31T15:59:41;98258.56;;;14.90;75.25
69223;BME280;56514;51.816;-0.026;2023-03-31T16:02:41;98272.53;;;14.57;75.71
69223;BME280;56514;51.816;-0.026;2023-03-31T16:05:41;98279.34;;;14.45;74.26
69223;BME280;56514;51.816;-0.026;2023-03-31T16:08:39;98271.38;;;13.80;76.75
69223;BME280;56514;51.816;-0.026;2023-03-31T16:11:35;98287.56;;;13.56;79.63
69223;BME280;56514;51.816;-0.026;2023-03-31T16:14:26;98286.00;;;13.47;81.05
69223;BME280;56514;51.816;-0.026;2023-03-31T16:17:44;98295.22;;;13.51;81.10
69223;BME280;56514;51.816;-0.026;2023-03-31T16:20:37;98305.47;;;13.83;78.42
69223;BME280;56514;51.816;-0.026;2023-03-31T16:23:26;98301.34;;;13.66;79.72
69223;BME280;56514;51.816;-0.026;2023-03-31T16:26:20;98301.81;;;13.84;79.67
69223;BME280;56514;51.816;-0.026;2023-03-31T16:29:06;98319.88;;;13.80;80.14
69223;BME280;56514;51.816;-0.026;2023-03-31T16:32:09;98324.94;;;13.75;79.18
69223;BME280;56514;51.816;-0.026;2023-03-31T16:34:57;98331.50;;;13.65;78.92
69223;BME280;56514;51.816;-0.026;2023-03-31T16:37:42;98341.44;;;13.63;78.58
69223;BME280;56514;51.816;-0.026;2023-03-31T16:40:29;98350.41;;;13.25;81.18
69223;BME280;56514;51.816;-0.026;2023-03-31T16:43:20;98337.66;;;13.28;80.91
69223;BME280;56514;51.816;-0.026;2023-03-31T16:46:06;98350.59;;;13.23;81.34
69223;BME280;56514;51.816;-0.026;2023-03-31T16:48:52;98354.16;;;13.30;79.60
69223;BME280;56514;51.816;-0.026;2023-03-31T16:51:37;98367.13;;;13.25;80.52
69223;BME280;56514;51.816;-0.026;2023-03-31T16:54:22;98371.19;;;13.13;80.80
69223;BME280;56514;51.816;-0.026;2023-03-31T16:57:07;98373.91;;;12.97;81.26
69223;BME280;56514;51.816;-0.026;2023-03-31T16:59:52;98371.84;;;12.85;81.70
69223;BME280;56514;51.816;-0.026;2023-03-31T17:02:37;98377.59;;;12.66;83.31
69223;BME280;56514;51.816;-0.026;2023-03-31T17:05:25;98389.84;;;12.59;83.97
69223;BME280;56514;51.816;-0.026;2023-03-31T17:08:11;98404.72;;;12.60;84.48
69223;BME280;56514;51.816;-0.026;2023-03-31T17:11:10;98408.69;;;12.56;84.39
69223;BME280;56514;51.816;-0.026;2023-03-31T17:13:56;98428.06;;;12.48;85.14
69223;BME280;56514;51.816;-0.026;2023-03-31T17:16:41;98418.66;;;12.54;85.10
69223;BME280;56514;51.816;-0.026;2023-03-31T17:19:29;98422.19;;;12.69;84.72
69223;BME280;56514;51.816;-0.026;2023-03-31T17:22:15;98435.25;;;12.70;84.45
69223;BME280;56514;51.816;-0.026;2023-03-31T17:25:00;98430.97;;;12.69;85.17